Time;durP1;ratioP1;P1;durP2;ratioP2;P2;SDS_P1;SDS_P2;PMS_P1;PMS_P2;Temp;Humidity;BMP_temperature;BMP_pressure;BME280_temperature;BME280_humidity;BME280_pressure;Samples;Min_cycle;Max_cycle;Signal;HPM_P1;HPM_P2
2021/06/08 00:00:38;;;;;;;8.38;5.85;;;18.20;78.40;;;;;;5036933;28;20040;-40
2021/06/08 00:03:04;;;;;;;6.10;5.05;;;18.20;78.50;;;;;;5036503;28;20044;-39
2021/06/08 00:05:30;;;;;;;6.63;4.85;;;18.10;78.40;;;;;;5037141;28;20099;-36
2021/06/08 00:07:56;;;;;;;7.13;5.40;;;18.10;78.30;;;;;;5036552;28;20026;-36
2021/06/08 00:10:22;;;;;;;7.72;5.60;;;18.20;78.50;;;;;;5036979;28;20323;-35
2021/06/08 00:12:48;;;;;;;6.15;4.90;;;18.10;78.40;;;;;;5036365;28;20025;-36
2021/06/08 00:15:14;;;;;;;7.25;5.30;;;18.10;78.30;;;;;;5036546;28;20037;-39
2021/06/08 00:17:40;;;;;;;5.63;4.68;;;18.10;78.50;;;;;;5036314;28;20136;-38
2021/06/08 00:20:06;;;;;;;9.45;6.32;;;18.10;78.40;;;;;;5036522;28;20053;-36
2021/06/08 00:22:33;;;;;;;6.88;5.57;;;18.10;78.60;;;;;;5036621;28;20037;-40
2021/06/08 00:24:58;;;;;;;7.97;5.20;;;18.10;78.60;;;;;;5036575;28;20030;-39
2021/06/08 00:27:24;;;;;;;9.48;5.68;;;18.10;78.50;;;;;;5036617;28;20036;-39
2021/06/08 00:29:50;;;;;;;6.97;5.13;;;18.10;78.60;;;;;;5036393;28;20101;-39
2021/06/08 00:32:15;;;;;;;6.57;5.10;;;18.00;78.50;;;;;;5036519;28;20274;-39
2021/06/08 00:34:41;;;;;;;5.95;5.10;;;18.00;78.50;;;;;;5036266;28;20053;-36
2021/06/08 00:37:07;;;;;;;8.85;5.20;;;18.00;78.60;;;;;;5036351;28;20468;-36
2021/06/08 00:39:32;;;;;;;7.38;5.63;;;18.00;78.70;;;;;;5036035;28;20034;-39
2021/06/08 00:41:58;;;;;;;9.27;6.18;;;17.90;78.70;;;;;;5036409;28;20041;-36
2021/06/08 00:44:24;;;;;;;8.55;5.22;;;17.90;79.40;;;;;;5036196;28;20029;-39
2021/06/08 00:46:49;;;;;;;8.23;6.07;;;17.80;78.80;;;;;;5036074;28;20043;-38
2021/06/08 00:49:15;;;;;;;7.07;4.95;;;17.80;79.10;;;;;;5036400;28;20049;-39
2021/06/08 00:51:42;;;;;;;9.07;6.28;;;17.80;79.10;;;;;;5035995;28;20041;-35
2021/06/08 00:54:12;;;;;;;7.15;5.88;;;17.80;79.30;;;;;;5036062;28;20060;-40
2021/06/08 00:56:41;;;;;;;6.03;5.25;;;17.70;79.20;;;;;;5035931;28;20069;-40
2021/06/08 00:59:07;;;;;;;7.35;5.53;;;17.80;79.40;;;;;;5035788;28;20043;-39
2021/06/08 01:01:34;;;;;;;8.23;6.18;;;17.80;79.50;;;;;;5035865;28;20041;-38
2021/06/08 01:04:02;;;;;;;10.43;6.25;;;17.70;79.60;;;;;;5035950;28;20088;-39
2021/06/08 01:06:34;;;;;;;7.38;4.93;;;17.70;79.60;;;;;;5035760;28;20336;-36
2021/06/08 01:09:00;;;;;;;8.27;5.70;;;17.70;79.70;;;;;;5036273;28;20030;-38
2021/06/08 01:11:26;;;;;;;14.65;5.95;;;17.70;79.80;;;;;;5035741;28;20036;-39
2021/06/08 01:13:52;;;;;;;7.72;5.40;;;17.70;79.80;;;;;;5035948;28;20025;-36
2021/06/08 01:16:18;;;;;;;7.95;5.88;;;17.70;79.90;;;;;;5035469;28;20045;-37
2021/06/08 01:18:43;;;;;;;8.82;5.18;;;17.70;80.00;;;;;;5035771;28;20025;-39
2021/06/08 01:21:11;;;;;;;8.00;5.70;;;17.70;79.90;;;;;;5035783;28;20040;-39
2021/06/08 01:23:38;;;;;;;10.63;5.88;;;17.70;80.10;;;;;;5035842;28;20099;-39
2021/06/08 01:26:06;;;;;;;8.52;5.75;;;17.70;80.20;;;;;;5035787;28;20122;-36
2021/06/08 01:28:33;;;;;;;6.93;5.78;;;17.70;80.30;;;;;;5035673;28;20029;-36
2021/06/08 01:31:11;;;;;;;8.43;5.88;;;17.70;80.40;;;;;;5035964;28;20037;-36
2021/06/08 01:33:41;;;;;;;10.35;6.45;;;17.70;80.50;;;;;;5035252;28;20056;-39
2021/06/08 01:36:11;;;;;;;6.60;5.90;;;17.70;80.70;;;;;;5035826;28;20404;-36
2021/06/08 01:38:38;;;;;;;8.40;5.93;;;17.70;80.80;;;;;;5035573;28;20337;-39
2021/06/08 01:41:07;;;;;;;7.28;5.88;;;17.70;80.90;;;;;;5035754;28;20380;-36
2021/06/08 01:43:33;;;;;;;6.72;5.40;;;17.60;80.80;;;;;;5035359;28;20025;-36
2021/06/08 01:45:59;;;;;;;6.88;5.55;;;17.60;80.90;;;;;;5035713;28;20084;-39
2021/06/08 01:48:25;;;;;;;7.68;5.78;;;17.60;81.10;;;;;;5035121;28;20288;-39
2021/06/08 01:50:51;;;;;;;9.55;5.40;;;17.70;81.10;;;;;;5035678;28;20034;-36
2021/06/08 01:53:20;;;;;;;8.77;6.45;;;17.70;81.10;;;;;;5038308;28;20436;-35
2021/06/08 01:55:47;;;;;;;7.60;6.07;;;17.70;81.20;;;;;;5039321;28;20040;-39
2021/06/08 01:58:35;;;;;;;6.70;5.90;;;17.70;81.30;;;;;;5039015;28;20061;-36
2021/06/08 02:01:10;;;;;;;9.65;6.20;;;17.70;81.30;;;;;;5039031;28;20075;-36
2021/06/08 02:03:48;;;;;;;8.73;6.63;;;17.70;81.40;;;;;;5039266;28;20065;-36
2021/06/08 02:06:34;;;;;;;7.18;6.47;;;17.70;81.40;;;;;;5039284;28;20080;-39
2021/06/08 02:09:03;;;;;;;11.15;6.90;;;17.70;81.30;;;;;;5039115;28;20029;-36
2021/06/08 02:11:38;;;;;;;9.10;6.35;;;17.70;81.40;;;;;;5038981;28;20482;-36
2021/06/08 02:14:19;;;;;;;6.68;5.95;;;17.70;81.60;;;;;;5039128;28;20030;-39
2021/06/08 02:17:08;;;;;;;11.57;7.05;;;17.70;81.40;;;;;;5038331;28;20061;-36
2021/06/08 02:19:37;;;;;;;10.20;6.72;;;17.70;81.50;;;;;;5039006;28;20061;-40
2021/06/08 02:22:05;;;;;;;9.05;7.57;;;17.70;81.60;;;;;;5038927;28;20029;-38
2021/06/08 02:24:31;;;;;;;7.15;6.45;;;17.70;81.70;;;;;;5038639;28;20025;-39
2021/06/08 02:27:04;;;;;;;8.25;7.00;;;17.70;81.80;;;;;;5038962;28;20026;-39
2021/06/08 02:29:31;;;;;;;9.75;6.93;;;17.70;81.80;;;;;;5039061;28;20354;-40
2021/06/08 02:31:57;;;;;;;9.63;6.68;;;17.60;81.70;;;;;;5038608;28;20300;-39
2021/06/08 02:34:23;;;;;;;9.55;6.78;;;17.60;81.80;;;;;;5038682;28;20030;-40
2021/06/08 02:36:52;;;;;;;10.23;7.15;;;17.70;82.00;;;;;;5038620;28;20443;-36
2021/06/08 02:39:21;;;;;;;8.07;6.55;;;17.70;81.90;;;;;;5038397;28;20041;-36
2021/06/08 02:41:46;;;;;;;9.90;7.22;;;17.70;81.70;;;;;;5038459;28;20029;-40
2021/06/08 02:44:13;;;;;;;10.05;6.80;;;17.70;81.70;;;;;;5038392;28;20026;-36
2021/06/08 02:46:40;;;;;;;8.88;7.40;;;17.80;81.60;;;;;;5038106;28;20126;-40
2021/06/08 02:49:07;;;;;;;8.32;6.75;;;17.80;81.50;;;;;;5038335;28;20053;-38
2021/06/08 02:51:35;;;;;;;8.43;7.53;;;17.80;81.40;;;;;;5038297;28;20415;-36
2021/06/08 02:54:02;;;;;;;12.45;8.15;;;17.80;81.50;;;;;;5038127;28;20109;-39
2021/06/08 02:56:28;;;;;;;10.90;7.68;;;17.80;81.50;;;;;;5038186;28;20041;-36
2021/06/08 02:58:55;;;;;;;9.25;6.93;;;17.80;81.50;;;;;;5037948;28;20040;-36
2021/06/08 03:01:21;;;;;;;11.00;7.72;;;17.80;81.40;;;;;;5037956;28;20071;-39
2021/06/08 03:03:54;;;;;;;16.27;7.63;;;17.70;81.40;;;;;;5037098;28;20411;-36
2021/06/08 03:06:33;;;;;;;10.90;7.90;;;17.70;81.40;;;;;;5037643;28;20073;-36
2021/06/08 03:09:08;;;;;;;10.30;7.20;;;17.70;81.50;;;;;;5038349;28;20320;-39
2021/06/08 03:11:39;;;;;;;11.70;8.13;;;17.70;81.50;;;;;;5037597;28;20113;-36
2021/06/08 03:14:08;;;;;;;9.25;7.05;;;17.70;81.60;;;;;;5037655;28;20061;-39
2021/06/08 03:16:38;;;;;;;9.55;7.18;;;17.70;81.60;;;;;;5037507;28;20099;-36
2021/06/08 03:19:07;;;;;;;9.68;7.70;;;17.70;81.60;;;;;;5037894;28;20108;-38
2021/06/08 03:21:40;;;;;;;10.07;7.13;;;17.70;82.20;;;;;;5037240;28;20446;-36
2021/06/08 03:24:09;;;;;;;13.70;7.15;;;17.70;81.50;;;;;;5038351;28;20026;-36
2021/06/08 03:26:36;;;;;;;9.45;7.90;;;17.80;81.60;;;;;;5037512;28;20029;-36
2021/06/08 03:29:05;;;;;;;13.25;8.32;;;17.80;81.60;;;;;;5037396;28;20022;-40
2021/06/08 03:31:33;;;;;;;11.88;7.90;;;17.80;81.70;;;;;;5037638;28;20332;-36
2021/06/08 03:33:59;;;;;;;9.57;7.97;;;17.80;81.70;;;;;;5037464;28;20068;-39
2021/06/08 03:36:28;;;;;;;12.02;8.23;;;17.90;81.60;;;;;;5037184;28;20087;-39
2021/06/08 03:38:55;;;;;;;11.07;7.87;;;17.90;81.60;;;;;;5037873;28;20033;-36
2021/06/08 03:41:22;;;;;;;9.35;7.63;;;17.90;81.50;;;;;;5037145;28;20657;-36
2021/06/08 03:43:49;;;;;;;10.48;8.30;;;18.00;81.40;;;;;;5037329;28;20030;-36
2021/06/08 03:46:16;;;;;;;10.40;8.95;;;18.10;81.30;;;;;;5037244;28;20315;-39
2021/06/08 03:48:42;;;;;;;12.15;8.82;;;18.10;81.20;;;;;;5036897;28;20029;-36
2021/06/08 03:51:09;;;;;;;12.20;8.98;;;18.10;81.30;;;;;;5037405;28;20040;-39
2021/06/08 03:53:38;;;;;;;13.55;8.43;;;18.20;81.40;;;;;;5037165;28;20412;-39
2021/06/08 03:56:06;;;;;;;12.10;8.65;;;18.20;81.20;;;;;;5037130;28;20083;-36
2021/06/08 03:58:32;;;;;;;10.02;8.98;;;18.20;81.00;;;;;;5036752;28;20056;-36
2021/06/08 04:00:58;;;;;;;11.07;8.10;;;18.20;81.10;;;;;;5037315;28;20091;-36
2021/06/08 04:03:25;;;;;;;10.75;8.15;;;18.30;81.20;;;;;;5036867;28;20105;-39
2021/06/08 04:05:54;;;;;;;11.30;7.60;;;18.30;81.30;;;;;;5037032;28;20042;-36
2021/06/08 04:08:19;;;;;;;13.27;9.23;;;18.40;81.10;;;;;;5036365;28;20025;-39
2021/06/08 04:10:46;;;;;;;12.00;8.80;;;18.50;80.70;;;;;;5036684;28;20036;-36
2021/06/08 04:13:12;;;;;;;9.50;7.93;;;18.50;80.50;;;;;;5036435;28;20045;-36
2021/06/08 04:15:40;;;;;;;13.75;9.15;;;18.50;80.30;;;;;;5036338;28;20439;-39
2021/06/08 04:18:09;;;;;;;11.50;8.85;;;18.60;80.00;;;;;;5036036;28;20045;-36
2021/06/08 04:20:35;;;;;;;12.65;9.95;;;18.60;80.00;;;;;;5036330;28;20022;-39
2021/06/08 04:23:01;;;;;;;11.88;9.65;;;18.60;79.80;;;;;;5036156;28;20079;-36
2021/06/08 04:25:29;;;;;;;10.38;8.63;;;18.60;79.80;;;;;;5036239;28;20025;-36
2021/06/08 04:27:55;;;;;;;12.93;9.13;;;18.50;79.70;;;;;;5036086;28;20428;-36
2021/06/08 04:30:22;;;;;;;14.82;9.15;;;18.50;79.90;;;;;;5036236;28;20030;-39
2021/06/08 04:32:49;;;;;;;14.50;9.75;;;18.50;80.00;;;;;;5035887;28;20026;-39
2021/06/08 04:35:16;;;;;;;12.77;9.70;;;18.40;80.10;;;;;;5035915;28;20119;-39
2021/06/08 04:37:43;;;;;;;22.40;9.48;;;18.50;80.20;;;;;;5036216;28;20034;-39
2021/06/08 04:40:10;;;;;;;15.00;9.68;;;18.40;80.40;;;;;;5035858;28;20175;-36
2021/06/08 04:42:38;;;;;;;14.63;10.43;;;18.40;80.60;;;;;;5035551;28;20426;-37
2021/06/08 04:45:05;;;;;;;11.50;9.30;;;18.50;80.80;;;;;;5035935;28;20030;-40
2021/06/08 04:47:31;;;;;;;13.05;9.98;;;18.50;80.80;;;;;;5035931;28;20021;-35
2021/06/08 04:49:56;;;;;;;14.50;7.97;;;18.50;81.50;;;;;;5036324;28;20108;-35
2021/06/08 04:52:22;;;;;;;12.27;9.10;;;18.60;80.90;;;;;;5035889;28;20029;-35
2021/06/08 04:54:48;;;;;;;10.90;8.57;;;18.70;80.80;;;;;;5035767;28;20056;-39
2021/06/08 04:57:15;;;;;;;9.82;8.05;;;18.70;80.70;;;;;;5035894;28;20121;-35
2021/06/08 04:59:53;;;;;;;10.10;8.07;;;18.80;80.40;;;;;;5036128;28;20315;-40
2021/06/08 05:02:35;;;;;;;9.48;8.20;;;18.80;80.30;;;;;;5035002;28;20046;-40
2021/06/08 05:05:06;;;;;;;15.30;9.05;;;18.90;80.50;;;;;;5035859;28;20029;-36
2021/06/08 05:07:36;;;;;;;9.38;7.82;;;19.00;80.50;;;;;;5035642;28;20083;-40
2021/06/08 05:10:04;;;;;;;9.18;7.30;;;19.10;80.30;;;;;;5035757;28;20376;-40
2021/06/08 05:12:32;;;;;;;13.73;8.10;;;19.20;80.40;;;;;;5035171;28;20298;-37
2021/06/08 05:15:00;;;;;;;9.25;7.15;;;19.30;80.20;;;;;;5035657;28;20033;-36
2021/06/08 05:17:27;;;;;;;9.80;6.75;;;19.40;79.90;;;;;;5035164;28;20057;-39
2021/06/08 05:19:54;;;;;;;8.25;6.10;;;19.50;79.40;;;;;;5035538;28;20025;-36
2021/06/08 05:22:21;;;;;;;7.85;6.10;;;19.60;79.10;;;;;;5034864;28;20037;-40
2021/06/08 05:24:53;;;;;;;7.25;6.53;;;19.70;78.60;;;;;;5035546;28;20030;-36
2021/06/08 05:27:23;;;;;;;10.43;6.50;;;19.70;78.20;;;;;;5037245;28;20033;-39
2021/06/08 05:29:52;;;;;;;;;;;19.80;78.30;;;;;;5040150;28;20026;-39
2021/06/08 05:32:18;;;;;;;7.40;5.97;;;19.90;77.80;;;;;;5039061;28;19913;-36
2021/06/08 05:34:45;;;;;;;7.35;6.22;;;19.90;77.60;;;;;;5039157;28;20317;-39
2021/06/08 05:37:15;;;;;;;6.80;5.97;;;20.00;77.90;;;;;;5039243;28;20040;-40
2021/06/08 05:39:42;;;;;;;9.32;6.25;;;20.00;76.90;;;;;;5039640;28;20022;-40
2021/06/08 05:42:16;;;;;;;9.77;6.05;;;20.00;76.70;;;;;;5038925;28;20072;-36
2021/06/08 05:44:42;;;;;;;8.70;6.20;;;20.00;76.50;;;;;;5039191;28;20025;-36
2021/06/08 05:47:08;;;;;;;10.00;6.90;;;20.00;76.30;;;;;;5039083;28;20033;-40
2021/06/08 05:49:37;;;;;;;10.90;6.97;;;20.00;76.20;;;;;;5038662;28;20022;-36
2021/06/08 05:52:04;;;;;;;10.63;7.38;;;20.00;76.00;;;;;;5014858;28;20034;-39
2021/06/08 05:54:31;;;;;;;12.32;8.95;;;20.00;76.40;;;;;;5018990;28;20033;-40
2021/06/08 05:56:58;;;;;;;12.15;8.00;;;20.10;76.20;;;;;;5018758;28;20033;-40
2021/06/08 05:59:25;;;;;;;9.75;6.90;;;20.10;76.30;;;;;;5018842;28;20021;-40
2021/06/08 06:01:51;;;;;;;11.05;7.07;;;20.20;76.50;;;;;;5018758;28;20436;-39
2021/06/08 06:04:17;;;;;;;8.90;7.45;;;20.20;76.30;;;;;;5018638;28;20333;-36
2021/06/08 06:06:45;;;;;;;9.38;7.50;;;20.30;76.20;;;;;;5018615;28;20030;-36
2021/06/08 06:09:15;;;;;;;10.85;8.32;;;20.30;76.30;;;;;;5019054;28;20021;-36
2021/06/08 06:11:42;;;;;;;12.82;8.25;;;20.30;76.20;;;;;;5018404;28;20041;-35
2021/06/08 06:14:09;;;;;;;12.98;8.40;;;20.40;76.10;;;;;;5018562;28;20037;-36
2021/06/08 06:16:53;;;;;;;11.82;7.60;;;20.50;76.00;;;;;;5017945;28;20054;-40
2021/06/08 06:19:21;;;;;;;8.85;7.18;;;20.60;75.90;;;;;;5018447;28;20033;-38
2021/06/08 06:21:48;;;;;;;16.20;10.43;;;20.60;75.40;;;;;;5017322;28;20057;-39
2021/06/08 06:24:15;;;;;;;11.27;7.13;;;20.70;75.20;;;;;;5018747;28;20030;-39
2021/06/08 06:26:43;;;;;;;9.18;6.32;;;20.70;74.90;;;;;;5017944;28;20436;-39
2021/06/08 06:29:10;;;;;;;7.90;6.28;;;20.80;74.80;;;;;;5018736;28;20327;-40
2021/06/08 06:31:36;;;;;;;7.45;6.10;;;20.90;74.60;;;;;;5018166;28;20037;-40
2021/06/08 06:34:03;;;;;;;9.57;7.10;;;20.90;74.00;;;;;;5017985;28;20022;-38
2021/06/08 06:36:32;;;;;;;9.90;6.13;;;20.90;73.20;;;;;;5017963;28;20050;-36
2021/06/08 06:39:11;;;;;;;9.07;6.15;;;21.00;73.10;;;;;;5018409;28;20037;-36
2021/06/08 06:41:42;;;;;;;7.82;5.85;;;21.00;73.10;;;;;;5017948;28;20080;-36
2021/06/08 06:44:09;;;;;;;9.20;6.70;;;21.00;72.90;;;;;;5018393;28;20306;-39
2021/06/08 06:46:34;;;;;;;13.93;6.95;;;21.00;72.70;;;;;;5017193;28;20042;-36
2021/06/08 06:49:00;;;;;;;7.82;6.15;;;21.00;72.50;;;;;;5018412;28;20037;-39
2021/06/08 06:51:26;;;;;;;7.18;5.97;;;21.10;72.70;;;;;;5017665;28;20288;-37
2021/06/08 06:53:55;;;;;;;7.55;5.45;;;21.10;72.50;;;;;;5018202;28;20026;-37
2021/06/08 06:56:22;;;;;;;7.55;5.88;;;21.10;72.70;;;;;;5017309;28;20092;-36
2021/06/08 06:58:49;;;;;;;9.88;5.93;;;21.10;73.00;;;;;;5017873;28;20092;-40
2021/06/08 07:01:19;;;;;;;9.10;6.35;;;21.20;72.50;;;;;;5017184;28;20046;-36
2021/06/08 07:03:46;;;;;;;7.85;6.15;;;21.20;72.00;;;;;;5017641;28;20109;-36
2021/06/08 07:06:14;;;;;;;6.45;5.53;;;21.30;71.70;;;;;;5017335;28;20374;-36
2021/06/08 07:08:41;;;;;;;7.10;5.72;;;21.30;71.70;;;;;;5017391;28;20072;-40
2021/06/08 07:11:07;;;;;;;5.57;4.97;;;21.30;71.60;;;;;;5017153;28;20036;-39
2021/06/08 07:13:33;;;;;;;6.25;5.43;;;21.40;71.70;;;;;;5032780;28;20022;-37
2021/06/08 07:15:58;;;;;;;9.30;5.55;;;21.40;71.40;;;;;;5017527;28;20112;-41
2021/06/08 07:18:24;;;;;;;8.30;5.90;;;21.40;71.70;;;;;;5017133;28;20396;-36
2021/06/08 07:20:50;;;;;;;8.32;5.63;;;21.40;71.60;;;;;;5016999;28;20425;-39
2021/06/08 07:23:20;;;;;;;8.50;5.93;;;21.40;71.20;;;;;;5017009;28;20037;-36
2021/06/08 07:25:48;;;;;;;8.07;5.85;;;21.50;71.10;;;;;;5017333;28;20038;-36
2021/06/08 07:28:18;;;;;;;7.50;6.22;;;21.50;71.10;;;;;;5017149;28;20025;-36
2021/06/08 07:30:44;;;;;;;7.07;5.28;;;21.60;71.10;;;;;;5016711;28;20030;-38
2021/06/08 07:33:25;;;;;;;12.63;5.88;;;21.60;71.20;;;;;;5016957;28;20380;-36
2021/06/08 07:36:02;;;;;;;7.15;5.60;;;21.70;71.20;;;;;;5016997;28;20037;-36
2021/06/08 07:38:52;;;;;;;7.55;6.10;;;21.70;70.80;;;;;;5016984;28;20291;-40
2021/06/08 07:41:35;;;;;;;7.65;5.85;;;21.70;70.60;;;;;;5016934;28;20037;-36
2021/06/08 07:44:06;;;;;;;9.48;6.80;;;21.80;70.50;;;;;;5017351;28;20033;-36
2021/06/08 07:46:32;;;;;;;10.30;6.50;;;21.80;71.20;;;;;;5016520;28;20034;-38
2021/06/08 07:49:00;;;;;;;7.32;5.82;;;21.90;70.70;;;;;;5017063;28;20030;-36
2021/06/08 07:51:29;;;;;;;7.97;5.70;;;21.90;70.90;;;;;;5015962;28;20414;-36
2021/06/08 07:53:55;;;;;;;14.65;7.72;;;22.00;70.60;;;;;;5016822;28;20034;-40
2021/06/08 07:56:22;;;;;;;9.38;7.60;;;22.00;70.50;;;;;;5015589;28;20383;-40
2021/06/08 07:58:49;;;;;;;7.25;6.32;;;22.10;70.20;;;;;;5016428;28;20144;-40
2021/06/08 08:01:18;;;;;;;11.07;8.30;;;22.10;70.80;;;;;;5016208;28;20046;-36
2021/06/08 08:03:44;;;;;;;9.35;7.30;;;22.20;70.00;;;;;;5016606;28;20034;-39
2021/06/08 08:06:12;;;;;;;8.90;5.55;;;22.30;69.70;;;;;;5016127;28;20030;-41
2021/06/08 08:08:38;;;;;;;9.05;6.55;;;22.40;69.20;;;;;;5016746;28;20037;-39
2021/06/08 08:11:09;;;;;;;7.57;6.07;;;22.40;68.60;;;;;;5016458;28;20030;-36
2021/06/08 08:13:36;;;;;;;7.97;6.45;;;22.40;68.40;;;;;;5015996;28;20444;-40
2021/06/08 08:16:05;;;;;;;10.20;6.97;;;22.50;68.70;;;;;;5016563;28;20299;-36
2021/06/08 08:18:33;;;;;;;6.73;4.60;;;22.50;68.50;;;;;;5016015;28;20350;-40
2021/06/08 08:20:59;;;;;;;10.63;6.38;;;22.60;67.60;;;;;;5016297;28;20279;-40
2021/06/08 08:23:27;;;;;;;6.97;4.45;;;22.70;68.10;;;;;;5016347;28;20053;-36
2021/06/08 08:25:57;;;;;;;5.95;5.10;;;22.80;67.10;;;;;;5016411;28;20041;-36
2021/06/08 08:28:25;;;;;;;6.25;4.40;;;22.80;66.70;;;;;;5016067;28;20030;-39
2021/06/08 08:30:57;;;;;;;5.90;5.10;;;22.90;66.40;;;;;;5016282;28;20058;-37
2021/06/08 08:33:25;;;;;;;7.43;4.32;;;22.90;66.60;;;;;;5016119;28;20359;-39
2021/06/08 08:35:50;;;;;;;5.03;3.53;;;23.00;65.80;;;;;;5016111;28;20034;-36
2021/06/08 08:38:16;;;;;;;6.05;3.70;;;23.10;65.70;;;;;;5015862;28;20257;-36
2021/06/08 08:40:42;;;;;;;5.97;4.10;;;23.10;65.10;;;;;;5015575;28;20299;-36
2021/06/08 08:43:08;;;;;;;8.65;4.07;;;23.20;64.70;;;;;;5015730;28;20030;-40
2021/06/08 08:45:34;;;;;;;4.30;3.88;;;23.20;64.30;;;;;;5015518;28;20026;-41
2021/06/08 08:48:01;;;;;;;22.52;5.40;;;23.30;63.90;;;;;;5015338;28;20117;-36
2021/06/08 08:50:27;;;;;;;5.20;3.75;;;23.30;63.40;;;;;;5015560;28;20026;-36
2021/06/08 08:52:57;;;;;;;4.88;3.83;;;23.40;62.70;;;;;;5015664;28;20026;-39
2021/06/08 08:55:27;;;;;;;5.43;3.72;;;23.50;62.70;;;;;;5015295;28;20136;-36
2021/06/08 08:57:57;;;;;;;4.93;3.90;;;23.50;62.00;;;;;;5015802;28;20314;-36
2021/06/08 09:00:25;;;;;;;4.22;3.50;;;23.50;62.00;;;;;;5015323;28;20030;-36
2021/06/08 09:02:54;;;;;;;8.15;4.00;;;23.60;61.60;;;;;;5015671;28;20049;-36
2021/06/08 09:05:20;;;;;;;7.25;3.78;;;23.60;61.80;;;;;;5030383;28;20287;-40
2021/06/08 09:07:46;;;;;;;5.18;3.10;;;23.70;62.00;;;;;;5015827;28;20034;-41
2021/06/08 09:10:13;;;;;;;4.68;3.50;;;23.80;61.20;;;;;;5014854;28;20418;-41
2021/06/08 09:12:40;;;;;;;6.43;3.72;;;23.90;61.30;;;;;;5015711;28;20444;-36
2021/06/08 09:15:08;;;;;;;7.43;3.30;;;23.90;60.90;;;;;;5015127;28;20091;-36
2021/06/08 09:17:34;;;;;;;3.58;3.13;;;24.00;59.70;;;;;;5014943;28;20433;-41
2021/06/08 09:20:03;;;;;;;4.35;3.30;;;24.10;59.60;;;;;;5015120;28;20038;-36
2021/06/08 09:22:55;;;;;;;6.28;3.35;;;24.20;59.40;;;;;;5015501;28;20084;-36
2021/06/08 09:25:40;;;;;;;5.22;3.22;;;24.30;59.50;;;;;;5015143;28;20032;-36
2021/06/08 09:28:30;;;;;;;4.43;2.97;;;24.30;59.50;;;;;;5015074;28;20093;-37
2021/06/08 09:30:58;;;;;;;4.07;3.20;;;24.40;59.00;;;;;;5015156;28;20096;-40
2021/06/08 09:33:44;;;;;;;4.38;3.33;;;24.40;59.00;;;;;;5015121;28;20061;-36
2021/06/08 09:36:17;;;;;;;6.40;3.08;;;24.40;57.90;;;;;;5014833;28;20030;-41
2021/06/08 09:38:53;;;;;;;4.22;3.67;;;24.40;57.30;;;;;;5015051;28;20128;-37
2021/06/08 09:41:28;;;;;;;3.15;2.42;;;24.30;57.50;;;;;;5014778;28;20030;-36
2021/06/08 09:44:07;;;;;;;2.65;2.17;;;24.30;58.20;;;;;;5015410;28;20026;-36
2021/06/08 09:46:52;;;;;;;6.07;3.17;;;24.30;58.00;;;;;;5014789;28;20066;-36
2021/06/08 09:49:32;;;;;;;13.88;3.15;;;24.40;57.50;;;;;;5015648;28;20037;-37
2021/06/08 09:52:00;;;;;;;3.30;2.92;;;24.40;57.60;;;;;;5014727;28;20026;-40
2021/06/08 09:54:33;;;;;;;4.88;3.40;;;24.50;57.70;;;;;;5015306;28;20076;-40
2021/06/08 09:57:12;;;;;;;5.78;3.95;;;24.60;57.30;;;;;;5015082;28;20088;-36
2021/06/08 09:59:48;;;;;;;3.08;2.67;;;24.70;56.90;;;;;;5015170;28;20044;-37
2021/06/08 10:05:29;;;;;;;9.70;5.68;;;25.00;56.20;;;;;;5013081;28;20042;-40
2021/06/08 10:07:58;;;;;;;7.78;4.30;;;25.20;55.80;;;;;;5014740;28;20052;-41
2021/06/08 10:10:41;;;;;;;3.45;2.92;;;25.20;55.40;;;;;;5014810;28;20026;-39
2021/06/08 10:13:10;;;;;;;5.22;3.58;;;25.30;54.30;;;;;;5015857;28;20101;-37
2021/06/08 10:15:57;;;;;;;7.03;2.80;;;25.30;54.50;;;;;;5018259;28;20050;-39
2021/06/08 10:18:25;;;;;;;3.40;3.10;;;25.20;54.40;;;;;;5018024;28;20064;-41
2021/06/08 10:20:56;;;;;;;5.20;3.05;;;25.10;55.30;;;;;;5018378;28;20129;-36
2021/06/08 10:23:29;;;;;;;2.97;2.67;;;25.00;55.80;;;;;;5018518;28;20041;-40
2021/06/08 10:26:04;;;;;;;4.10;2.67;;;24.90;55.80;;;;;;5018320;28;20111;-40
2021/06/08 10:28:30;;;;;;;6.47;2.72;;;24.70;55.50;;;;;;5018071;28;20018;-41
2021/06/08 10:30:57;;;;;;;5.65;2.88;;;24.60;55.40;;;;;;5018293;28;20420;-37
2021/06/08 10:33:24;;;;;;;5.32;3.22;;;24.40;55.60;;;;;;5018361;28;20453;-39
2021/06/08 10:35:51;;;;;;;7.88;4.35;;;24.30;56.30;;;;;;5018344;28;20111;-36
2021/06/08 10:38:18;;;;;;;4.78;2.97;;;24.20;56.60;;;;;;5017981;28;20030;-36
2021/06/08 10:40:46;;;;;;;6.28;3.95;;;24.00;56.90;;;;;;5018350;28;20069;-40
2021/06/08 10:43:23;;;;;;;13.77;5.68;;;23.90;57.00;;;;;;5032905;28;20418;-36
2021/06/08 10:45:52;;;;;;;13.35;5.55;;;23.70;60.80;;;;;;5018066;28;20381;-40
2021/06/08 10:48:28;;;;;;;12.73;4.53;;;23.50;62.30;;;;;;5017698;28;20026;-40
2021/06/08 10:51:12;;;;;;;6.90;4.22;;;23.30;63.60;;;;;;5017732;28;20029;-36
2021/06/08 10:53:45;;;;;;;9.52;4.53;;;23.00;64.00;;;;;;5017622;28;20468;-40
2021/06/08 10:56:25;;;;;;;10.57;6.28;;;22.70;65.60;;;;;;5017339;28;20456;-40
2021/06/08 10:58:56;;;;;;;8.07;4.50;;;22.50;66.70;;;;;;5017894;28;20057;-40
2021/06/08 11:01:31;;;;;;;8.13;4.80;;;22.30;68.20;;;;;;5016212;28;20030;-40
2021/06/08 11:04:03;;;;;;;6.70;4.40;;;22.10;68.70;;;;;;5017715;28;20026;-40
2021/06/08 11:06:45;;;;;;;9.40;5.20;;;22.00;70.40;;;;;;5017371;28;20026;-36
2021/06/08 11:09:14;;;;;;;11.18;7.95;;;21.90;70.40;;;;;;5017786;28;20029;-40
2021/06/08 11:11:52;;;;;;;9.05;5.43;;;21.80;70.80;;;;;;5017031;28;20113;-40
2021/06/08 11:16:57;;;;;;;11.30;6.63;;;21.90;74.00;;;;;;5016939;28;20049;-37
2021/06/08 11:19:41;;;;;;;7.97;5.50;;;21.90;74.90;;;;;;5017574;28;20366;-41
2021/06/08 11:22:08;;;;;;;11.98;5.53;;;21.90;75.00;;;;;;5017424;28;20048;-37
2021/06/08 11:24:38;;;;;;;4.85;3.83;;;21.90;76.70;;;;;;5031741;28;20317;-39
2021/06/08 11:27:05;;;;;;;5.13;4.50;;;22.00;75.30;;;;;;5017389;28;20037;-36
2021/06/08 11:29:55;;;;;;;7.38;4.68;;;22.10;75.70;;;;;;5017545;28;20049;-40
2021/06/08 11:32:30;;;;;;;8.05;5.10;;;22.20;75.20;;;;;;5017118;28;20034;-40
2021/06/08 11:35:21;;;;;;;7.18;4.85;;;22.20;74.80;;;;;;5017256;28;20054;-40
2021/06/08 11:37:50;;;;;;;11.82;7.13;;;22.30;74.50;;;;;;5017225;28;20069;-35
2021/06/08 11:40:34;;;;;;;7.70;4.78;;;22.40;73.00;;;;;;5016476;28;20032;-37
2021/06/08 11:43:05;;;;;;;5.93;4.47;;;22.40;72.50;;;;;;5016990;28;20026;-40
2021/06/08 11:45:35;;;;;;;;;;;22.40;71.80;;;;;;5032438;28;20025;-40
2021/06/08 11:48:01;;;;;;;5.47;4.03;;;22.40;70.70;;;;;;5016928;28;19905;-36
2021/06/08 11:50:44;;;;;;;5.80;4.53;;;22.40;70.40;;;;;;5016647;28;20429;-41
2021/06/08 11:53:15;;;;;;;7.18;2.90;;;22.40;70.00;;;;;;5016367;28;20050;-36
2021/06/08 11:55:42;;;;;;;5.70;2.92;;;22.40;69.20;;;;;;5016810;28;20044;-39
2021/06/08 11:58:30;;;;;;;4.20;2.75;;;22.40;69.80;;;;;;5016513;28;20034;-39
2021/06/08 12:00:56;;;;;;;7.32;3.55;;;22.50;69.60;;;;;;5016317;28;20030;-40
2021/06/08 12:03:29;;;;;;;3.88;2.60;;;22.50;68.60;;;;;;5016368;28;20452;-40
2021/06/08 12:05:55;;;;;;;3.67;2.55;;;22.60;69.30;;;;;;5016478;28;20033;-36
2021/06/08 12:08:26;;;;;;;4.28;2.55;;;22.70;69.20;;;;;;5016175;28;20026;-36
2021/06/08 12:10:53;;;;;;;5.85;2.88;;;22.80;68.70;;;;;;5016339;28;20022;-36
2021/06/08 12:13:33;;;;;;;4.78;2.45;;;23.00;67.90;;;;;;5016130;28;20038;-36
2021/06/08 12:16:00;;;;;;;6.47;2.45;;;23.10;66.50;;;;;;5016001;28;20040;-39
2021/06/08 12:18:37;;;;;;;4.60;2.35;;;23.30;66.70;;;;;;5015726;28;20360;-40
2021/06/08 12:21:15;;;;;;;6.90;2.60;;;23.50;66.40;;;;;;5016094;28;20232;-40
2021/06/08 12:23:42;;;;;;;2.30;2.10;;;23.70;65.00;;;;;;5016173;28;20037;-41
2021/06/08 12:26:13;;;;;;;2.78;2.22;;;24.00;64.70;;;;;;5015797;28;20125;-41
2021/06/08 12:29:00;;;;;;;4.30;2.20;;;24.30;63.50;;;;;;5016075;28;20029;-40
2021/06/08 12:31:26;;;;;;;3.92;3.13;;;24.50;63.10;;;;;;5015381;28;20504;-40
2021/06/08 12:33:51;;;;;;;6.00;2.72;;;24.80;62.30;;;;;;5015586;28;20101;-43
2021/06/08 12:36:17;;;;;;;6.65;2.88;;;25.00;61.10;;;;;;5014914;28;20409;-41
2021/06/08 12:38:46;;;;;;;3.28;2.85;;;25.20;60.90;;;;;;5015845;28;20088;-38
2021/06/08 12:41:13;;;;;;;6.00;3.65;;;25.40;60.40;;;;;;5015753;28;20476;-37
2021/06/08 12:43:50;;;;;;;3.83;2.80;;;25.60;59.10;;;;;;5015616;28;20033;-37
2021/06/08 12:46:33;;;;;;;5.53;2.78;;;25.80;57.50;;;;;;5015475;28;20041;-37
2021/06/08 12:49:15;;;;;;;4.60;2.47;;;26.00;56.80;;;;;;5015742;28;20048;-36
2021/06/08 12:51:45;;;;;;;6.07;2.83;;;26.20;56.10;;;;;;5015401;28;20321;-36
2021/06/08 12:54:26;;;;;;;;;;;26.40;55.60;;;;;;5016176;28;20061;-41
2021/06/08 12:56:52;;;;;;;3.75;2.70;;;26.40;56.00;;;;;;5015716;28;19971;-36
2021/06/08 12:59:22;;;;;;;4.03;2.35;;;26.50;55.20;;;;;;5016160;28;20317;-37
2021/06/08 13:01:50;;;;;;;3.72;2.60;;;26.50;55.20;;;;;;5015716;28;20109;-37
2021/06/08 13:04:16;;;;;;;3.63;2.70;;;26.50;54.30;;;;;;5015565;28;20034;-37